sensor_id;sensor_type;location;lat;lon;timestamp;P1;durP1;ratioP1;P2;durP2;ratioP2
1925;SDS011;964;42.606;23.588;2022-08-03T00:01:06;2.43;;;1.80;;
1925;SDS011;964;42.606;23.588;2022-08-03T00:03:33;2.00;;;1.80;;
1925;SDS011;964;42.606;23.588;2022-08-03T00:06:00;2.10;;;2.00;;
1925;SDS011;964;42.606;23.588;2022-08-03T00:08:28;2.13;;;1.93;;
1925;SDS011;964;42.606;23.588;2022-08-03T00:10:55;3.93;;;2.20;;
1925;SDS011;964;42.606;23.588;2022-08-03T00:13:21;2.10;;;2.00;;
1925;SDS011;964;42.606;23.588;2022-08-03T00:15:48;2.30;;;2.10;;
1925;SDS011;964;42.606;23.588;2022-08-03T00:18:15;2.47;;;2.00;;
1925;SDS011;964;42.606;23.588;2022-08-03T00:20:42;2.37;;;2.17;;
1925;SDS011;964;42.606;23.588;2022-08-03T00:23:09;3.07;;;2.73;;
1925;SDS011;964;42.606;23.588;2022-08-03T00:25:37;2.87;;;2.67;;
1925;SDS011;964;42.606;23.588;2022-08-03T00:28:04;2.50;;;2.30;;
1925;SDS011;964;42.606;23.588;2022-08-03T00:30:31;2.67;;;2.47;;
1925;SDS011;964;42.606;23.588;2022-08-03T00:32:58;2.43;;;2.23;;
1925;SDS011;964;42.606;23.588;2022-08-03T00:35:25;2.73;;;2.37;;
1925;SDS011;964;42.606;23.588;2022-08-03T00:37:52;2.40;;;2.20;;
1925;SDS011;964;42.606;23.588;2022-08-03T00:40:20;2.30;;;2.20;;
1925;SDS011;964;42.606;23.588;2022-08-03T00:42:51;2.87;;;2.67;;
1925;SDS011;964;42.606;23.588;2022-08-03T00:45:20;5.63;;;2.80;;
1925;SDS011;964;42.606;23.588;2022-08-03T00:47:48;4.13;;;3.00;;
1925;SDS011;964;42.606;23.588;2022-08-03T00:50:16;2.90;;;2.43;;
1925;SDS011;964;42.606;23.588;2022-08-03T00:52:43;2.40;;;2.20;;
1925;SDS011;964;42.606;23.588;2022-08-03T00:55:10;4.07;;;1.87;;
1925;SDS011;964;42.606;23.588;2022-08-03T00:57:38;1.90;;;1.80;;
1925;SDS011;964;42.606;23.588;2022-08-03T01:00:07;2.63;;;1.93;;
1925;SDS011;964;42.606;23.588;2022-08-03T01:02:36;2.80;;;1.93;;
1925;SDS011;964;42.606;23.588;2022-08-03T01:05:04;5.43;;;2.33;;
1925;SDS011;964;42.606;23.588;2022-08-03T01:07:35;4.53;;;2.50;;
1925;SDS011;964;42.606;23.588;2022-08-03T01:10:10;18.73;;;5.07;;
1925;SDS011;964;42.606;23.588;2022-08-03T01:12:43;9.40;;;3.20;;
1925;SDS011;964;42.606;23.588;2022-08-03T01:15:21;7.20;;;3.20;;
1925;SDS011;964;42.606;23.588;2022-08-03T01:17:55;7.80;;;2.00;;
1925;SDS011;964;42.606;23.588;2022-08-03T01:20:28;3.37;;;1.80;;
1925;SDS011;964;42.606;23.588;2022-08-03T01:23:09;2.60;;;2.10;;
1925;SDS011;964;42.606;23.588;2022-08-03T01:26:02;2.63;;;2.10;;
1925;SDS011;964;42.606;23.588;2022-08-03T01:31:41;2.40;;;2.00;;
1925;SDS011;964;42.606;23.588;2022-08-03T01:34:14;1.67;;;1.57;;
1925;SDS011;964;42.606;23.588;2022-08-03T01:36:43;2.10;;;1.90;;
1925;SDS011;964;42.606;23.588;2022-08-03T01:39:21;5.70;;;2.30;;
1925;SDS011;964;42.606;23.588;2022-08-03T01:41:52;6.37;;;2.47;;
1925;SDS011;964;42.606;23.588;2022-08-03T01:44:23;3.43;;;2.23;;
1925;SDS011;964;42.606;23.588;2022-08-03T01:46:54;5.67;;;2.20;;
1925;SDS011;964;42.606;23.588;2022-08-03T01:49:23;2.43;;;2.23;;
1925;SDS011;964;42.606;23.588;2022-08-03T01:51:52;6.60;;;2.00;;
1925;SDS011;964;42.606;23.588;2022-08-03T01:54:21;4.63;;;2.13;;
1925;SDS011;964;42.606;23.588;2022-08-03T01:56:50;2.43;;;2.23;;
1925;SDS011;964;42.606;23.588;2022-08-03T01:59:18;2.77;;;2.10;;
1925;SDS011;964;42.606;23.588;2022-08-03T02:01:47;4.60;;;2.00;;
1925;SDS011;964;42.606;23.588;2022-08-03T02:04:17;2.33;;;2.13;;
1925;SDS011;964;42.606;23.588;2022-08-03T02:06:45;10.70;;;2.37;;
1925;SDS011;964;42.606;23.588;2022-08-03T02:09:14;2.37;;;2.17;;
1925;SDS011;964;42.606;23.588;2022-08-03T02:11:43;1.67;;;1.57;;
1925;SDS011;964;42.606;23.588;2022-08-03T02:14:11;2.40;;;2.07;;
1925;SDS011;964;42.606;23.588;2022-08-03T02:16:40;2.20;;;1.73;;
1925;SDS011;964;42.606;23.588;2022-08-03T02:19:08;1.80;;;1.70;;
1925;SDS011;964;42.606;23.588;2022-08-03T02:21:37;2.40;;;2.20;;
1925;SDS011;964;42.606;23.588;2022-08-03T02:24:05;2.33;;;1.90;;
1925;SDS011;964;42.606;23.588;2022-08-03T02:26:32;2.60;;;2.00;;
1925;SDS011;964;42.606;23.588;2022-08-03T02:29:02;1.97;;;1.87;;
1925;SDS011;964;42.606;23.588;2022-08-03T02:31:36;2.00;;;1.90;;
1925;SDS011;964;42.606;23.588;2022-08-03T02:34:05;1.60;;;1.50;;
1925;SDS011;964;42.606;23.588;2022-08-03T02:36:38;3.73;;;2.07;;
1925;SDS011;964;42.606;23.588;2022-08-03T02:39:09;2.20;;;2.00;;
1925;SDS011;964;42.606;23.588;2022-08-03T02:41:40;1.73;;;1.63;;
1925;SDS011;964;42.606;23.588;2022-08-03T02:44:11;2.27;;;1.80;;
1925;SDS011;964;42.606;23.588;2022-08-03T02:46:40;5.13;;;2.40;;
1925;SDS011;964;42.606;23.588;2022-08-03T02:49:10;3.73;;;2.23;;
1925;SDS011;964;42.606;23.588;2022-08-03T02:51:40;2.60;;;2.10;;
1925;SDS011;964;42.606;23.588;2022-08-03T02:54:09;2.70;;;2.13;;
1925;SDS011;964;42.606;23.588;2022-08-03T02:56:37;3.80;;;2.33;;
1925;SDS011;964;42.606;23.588;2022-08-03T02:59:05;7.90;;;3.03;;
1925;SDS011;964;42.606;23.588;2022-08-03T03:01:32;2.40;;;2.20;;
1925;SDS011;964;42.606;23.588;2022-08-03T03:04:00;3.33;;;2.50;;
1925;SDS011;964;42.606;23.588;2022-08-03T03:06:27;2.27;;;2.07;;
1925;SDS011;964;42.606;23.588;2022-08-03T03:08:57;3.40;;;2.57;;
1925;SDS011;964;42.606;23.588;2022-08-03T03:11:24;3.30;;;3.00;;
1925;SDS011;964;42.606;23.588;2022-08-03T03:13:51;5.23;;;1.80;;
1925;SDS011;964;42.606;23.588;2022-08-03T03:16:19;3.37;;;2.13;;
1925;SDS011;964;42.606;23.588;2022-08-03T03:18:47;3.20;;;2.90;;
1925;SDS011;964;42.606;23.588;2022-08-03T03:21:16;2.40;;;2.20;;
1925;SDS011;964;42.606;23.588;2022-08-03T03:23:45;2.23;;;2.03;;
1925;SDS011;964;42.606;23.588;2022-08-03T03:26:13;3.40;;;2.30;;
1925;SDS011;964;42.606;23.588;2022-08-03T03:28:40;2.30;;;2.10;;
1925;SDS011;964;42.606;23.588;2022-08-03T03:31:08;2.50;;;2.30;;
1925;SDS011;964;42.606;23.588;2022-08-03T03:33:35;6.07;;;2.97;;
1925;SDS011;964;42.606;23.588;2022-08-03T03:36:04;9.63;;;2.70;;
1925;SDS011;964;42.606;23.588;2022-08-03T03:38:32;4.37;;;2.47;;
1925;SDS011;964;42.606;23.588;2022-08-03T03:40:59;3.80;;;2.87;;
1925;SDS011;964;42.606;23.588;2022-08-03T03:43:28;4.27;;;2.63;;
1925;SDS011;964;42.606;23.588;2022-08-03T03:45:55;5.50;;;3.63;;
1925;SDS011;964;42.606;23.588;2022-08-03T03:48:23;7.83;;;3.43;;
1925;SDS011;964;42.606;23.588;2022-08-03T03:50:51;5.60;;;3.63;;
1925;SDS011;964;42.606;23.588;2022-08-03T03:53:18;7.43;;;2.97;;
1925;SDS011;964;42.606;23.588;2022-08-03T03:55:45;3.17;;;2.80;;
1925;SDS011;964;42.606;23.588;2022-08-03T03:58:12;5.23;;;2.63;;
1925;SDS011;964;42.606;23.588;2022-08-03T04:00:40;3.03;;;2.73;;
1925;SDS011;964;42.606;23.588;2022-08-03T04:03:09;3.23;;;2.73;;
1925;SDS011;964;42.606;23.588;2022-08-03T04:05:36;4.50;;;3.23;;
1925;SDS011;964;42.606;23.588;2022-08-03T04:08:20;11.27;;;3.10;;
1925;SDS011;964;42.606;23.588;2022-08-03T04:11:06;7.30;;;2.80;;
1925;SDS011;964;42.606;23.588;2022-08-03T04:13:38;3.10;;;2.77;;
1925;SDS011;964;42.606;23.588;2022-08-03T04:16:11;5.30;;;2.50;;
1925;SDS011;964;42.606;23.588;2022-08-03T04:18:40;5.23;;;2.30;;
1925;SDS011;964;42.606;23.588;2022-08-03T04:21:11;2.77;;;2.57;;
1925;SDS011;964;42.606;23.588;2022-08-03T04:23:43;3.60;;;2.53;;
1925;SDS011;964;42.606;23.588;2022-08-03T04:26:14;3.67;;;3.33;;
1925;SDS011;964;42.606;23.588;2022-08-03T04:28:44;5.97;;;2.37;;
1925;SDS011;964;42.606;23.588;2022-08-03T04:31:16;2.90;;;2.57;;
1925;SDS011;964;42.606;23.588;2022-08-03T04:33:45;5.67;;;3.00;;
1925;SDS011;964;42.606;23.588;2022-08-03T04:36:14;4.73;;;3.20;;
1925;SDS011;964;42.606;23.588;2022-08-03T04:38:45;3.97;;;2.60;;
1925;SDS011;964;42.606;23.588;2022-08-03T04:41:23;3.90;;;3.20;;
1925;SDS011;964;42.606;23.588;2022-08-03T04:43:52;2.93;;;2.73;;
1925;SDS011;964;42.606;23.588;2022-08-03T04:46:25;3.93;;;2.97;;
1925;SDS011;964;42.606;23.588;2022-08-03T04:48:57;2.40;;;2.20;;
1925;SDS011;964;42.606;23.588;2022-08-03T04:51:25;3.27;;;3.07;;
1925;SDS011;964;42.606;23.588;2022-08-03T04:53:53;3.50;;;3.20;;
1925;SDS011;964;42.606;23.588;2022-08-03T04:56:19;4.10;;;2.93;;
1925;SDS011;964;42.606;23.588;2022-08-03T04:58:46;4.10;;;3.13;;
1925;SDS011;964;42.606;23.588;2022-08-03T05:01:13;3.23;;;2.93;;
1925;SDS011;964;42.606;23.588;2022-08-03T05:03:42;3.17;;;2.60;;
1925;SDS011;964;42.606;23.588;2022-08-03T05:06:09;4.00;;;3.03;;
1925;SDS011;964;42.606;23.588;2022-08-03T05:08:35;4.03;;;3.50;;
1925;SDS011;964;42.606;23.588;2022-08-03T05:11:02;6.20;;;3.63;;
1925;SDS011;964;42.606;23.588;2022-08-03T05:13:29;4.47;;;3.70;;
1925;SDS011;964;42.606;23.588;2022-08-03T05:15:55;5.60;;;4.23;;
1925;SDS011;964;42.606;23.588;2022-08-03T05:18:22;7.00;;;5.20;;
1925;SDS011;964;42.606;23.588;2022-08-03T05:20:50;5.67;;;3.90;;
1925;SDS011;964;42.606;23.588;2022-08-03T05:23:17;7.00;;;5.17;;
1925;SDS011;964;42.606;23.588;2022-08-03T05:25:44;6.70;;;3.83;;
1925;SDS011;964;42.606;23.588;2022-08-03T05:28:10;5.60;;;4.07;;
1925;SDS011;964;42.606;23.588;2022-08-03T05:30:37;5.17;;;4.00;;
1925;SDS011;964;42.606;23.588;2022-08-03T05:33:04;8.03;;;4.07;;
1925;SDS011;964;42.606;23.588;2022-08-03T05:35:31;5.73;;;3.67;;
1925;SDS011;964;42.606;23.588;2022-08-03T05:38:00;3.90;;;3.47;;
1925;SDS011;964;42.606;23.588;2022-08-03T05:40:27;4.90;;;3.37;;
1925;SDS011;964;42.606;23.588;2022-08-03T05:42:54;6.20;;;3.80;;
1925;SDS011;964;42.606;23.588;2022-08-03T05:45:21;3.93;;;2.97;;
1925;SDS011;964;42.606;23.588;2022-08-03T05:47:48;4.77;;;3.27;;
1925;SDS011;964;42.606;23.588;2022-08-03T05:50:17;6.00;;;4.10;;
1925;SDS011;964;42.606;23.588;2022-08-03T05:52:44;4.67;;;3.60;;
1925;SDS011;964;42.606;23.588;2022-08-03T05:55:13;3.40;;;3.10;;
1925;SDS011;964;42.606;23.588;2022-08-03T05:57:40;5.80;;;3.80;;
1925;SDS011;964;42.606;23.588;2022-08-03T06:00:08;5.30;;;3.87;;
1925;SDS011;964;42.606;23.588;2022-08-03T06:02:36;3.83;;;3.20;;
1925;SDS011;964;42.606;23.588;2022-08-03T06:05:03;3.73;;;3.23;;
1925;SDS011;964;42.606;23.588;2022-08-03T06:07:31;5.03;;;3.27;;
1925;SDS011;964;42.606;23.588;2022-08-03T06:09:58;6.00;;;4.07;;
1925;SDS011;964;42.606;23.588;2022-08-03T06:12:27;3.20;;;2.90;;
1925;SDS011;964;42.606;23.588;2022-08-03T06:14:54;3.90;;;3.13;;
1925;SDS011;964;42.606;23.588;2022-08-03T06:17:21;3.67;;;3.27;;
1925;SDS011;964;42.606;23.588;2022-08-03T06:19:50;4.97;;;2.83;;
1925;SDS011;964;42.606;23.588;2022-08-03T06:22:17;3.53;;;3.23;;
1925;SDS011;964;42.606;23.588;2022-08-03T06:24:44;5.67;;;2.93;;
1925;SDS011;964;42.606;23.588;2022-08-03T06:27:11;2.90;;;2.70;;
1925;SDS011;964;42.606;23.588;2022-08-03T06:29:39;3.80;;;3.50;;
1925;SDS011;964;42.606;23.588;2022-08-03T06:32:06;3.83;;;3.40;;
1925;SDS011;964;42.606;23.588;2022-08-03T06:34:32;3.10;;;2.87;;
1925;SDS011;964;42.606;23.588;2022-08-03T06:36:59;4.10;;;2.67;;
1925;SDS011;964;42.606;23.588;2022-08-03T06:39:26;4.40;;;3.00;;
1925;SDS011;964;42.606;23.588;2022-08-03T06:41:52;3.17;;;2.87;;
1925;SDS011;964;42.606;23.588;2022-08-03T06:44:19;3.90;;;3.50;;
1925;SDS011;964;42.606;23.588;2022-08-03T06:46:47;3.53;;;3.23;;
1925;SDS011;964;42.606;23.588;2022-08-03T06:49:15;3.47;;;2.83;;
1925;SDS011;964;42.606;23.588;2022-08-03T06:51:42;2.63;;;2.43;;
1925;SDS011;964;42.606;23.588;2022-08-03T06:54:08;3.73;;;2.60;;
1925;SDS011;964;42.606;23.588;2022-08-03T06:56:36;2.80;;;2.60;;
1925;SDS011;964;42.606;23.588;2022-08-03T06:59:03;3.10;;;2.57;;
1925;SDS011;964;42.606;23.588;2022-08-03T07:01:29;2.80;;;2.23;;
1925;SDS011;964;42.606;23.588;2022-08-03T07:03:58;2.90;;;2.70;;
1925;SDS011;964;42.606;23.588;2022-08-03T07:06:25;2.40;;;2.20;;
1925;SDS011;964;42.606;23.588;2022-08-03T07:08:51;3.23;;;2.40;;
1925;SDS011;964;42.606;23.588;2022-08-03T07:11:18;2.30;;;2.20;;
1925;SDS011;964;42.606;23.588;2022-08-03T07:13:45;3.23;;;2.60;;
1925;SDS011;964;42.606;23.588;2022-08-03T07:16:12;2.80;;;2.60;;
1925;SDS011;964;42.606;23.588;2022-08-03T07:18:39;3.33;;;3.03;;
1925;SDS011;964;42.606;23.588;2022-08-03T07:21:08;3.27;;;2.57;;
1925;SDS011;964;42.606;23.588;2022-08-03T07:23:36;3.60;;;2.57;;
1925;SDS011;964;42.606;23.588;2022-08-03T07:26:03;2.57;;;2.37;;
1925;SDS011;964;42.606;23.588;2022-08-03T07:28:30;2.43;;;2.23;;
1925;SDS011;964;42.606;23.588;2022-08-03T07:30:57;2.63;;;2.43;;
1925;SDS011;964;42.606;23.588;2022-08-03T07:33:24;2.70;;;2.50;;
1925;SDS011;964;42.606;23.588;2022-08-03T07:35:51;2.60;;;2.40;;
1925;SDS011;964;42.606;23.588;2022-08-03T07:38:19;2.90;;;2.60;;
1925;SDS011;964;42.606;23.588;2022-08-03T07:40:46;2.53;;;2.33;;
1925;SDS011;964;42.606;23.588;2022-08-03T07:43:12;2.43;;;2.23;;
1925;SDS011;964;42.606;23.588;2022-08-03T07:45:39;2.23;;;2.13;;
1925;SDS011;964;42.606;23.588;2022-08-03T07:48:06;2.23;;;2.10;;
1925;SDS011;964;42.606;23.588;2022-08-03T07:50:33;3.20;;;2.77;;
1925;SDS011;964;42.606;23.588;2022-08-03T07:53:00;2.40;;;1.97;;
1925;SDS011;964;42.606;23.588;2022-08-03T07:55:28;4.93;;;2.70;;
1925;SDS011;964;42.606;23.588;2022-08-03T07:58:02;2.67;;;2.40;;
1925;SDS011;964;42.606;23.588;2022-08-03T08:00:30;3.10;;;2.80;;
1925;SDS011;964;42.606;23.588;2022-08-03T08:02:58;2.87;;;2.63;;
1925;SDS011;964;42.606;23.588;2022-08-03T08:05:24;4.87;;;2.70;;
1925;SDS011;964;42.606;23.588;2022-08-03T08:07:52;2.37;;;2.17;;
1925;SDS011;964;42.606;23.588;2022-08-03T08:10:18;3.30;;;2.50;;
1925;SDS011;964;42.606;23.588;2022-08-03T08:12:46;2.23;;;2.00;;
1925;SDS011;964;42.606;23.588;2022-08-03T08:15:13;2.20;;;2.07;;
1925;SDS011;964;42.606;23.588;2022-08-03T08:17:41;3.80;;;2.50;;
1925;SDS011;964;42.606;23.588;2022-08-03T08:20:10;2.40;;;2.20;;
1925;SDS011;964;42.606;23.588;2022-08-03T08:22:37;2.50;;;2.30;;
1925;SDS011;964;42.606;23.588;2022-08-03T08:25:05;2.50;;;2.30;;
1925;SDS011;964;42.606;23.588;2022-08-03T08:27:32;2.40;;;2.20;;
1925;SDS011;964;42.606;23.588;2022-08-03T08:30:00;2.50;;;2.37;;
1925;SDS011;964;42.606;23.588;2022-08-03T08:32:29;2.70;;;2.50;;
1925;SDS011;964;42.606;23.588;2022-08-03T08:34:56;2.87;;;2.23;;
1925;SDS011;964;42.606;23.588;2022-08-03T08:37:23;3.47;;;2.50;;
1925;SDS011;964;42.606;23.588;2022-08-03T08:39:50;2.30;;;2.10;;
1925;SDS011;964;42.606;23.588;2022-08-03T08:42:16;6.50;;;2.63;;
1925;SDS011;964;42.606;23.588;2022-08-03T08:44:43;2.60;;;2.40;;
1925;SDS011;964;42.606;23.588;2022-08-03T08:47:11;2.10;;;1.93;;
1925;SDS011;964;42.606;23.588;2022-08-03T08:49:39;2.13;;;2.03;;
1925;SDS011;964;42.606;23.588;2022-08-03T08:52:07;3.47;;;2.50;;
1925;SDS011;964;42.606;23.588;2022-08-03T08:54:34;2.67;;;2.47;;
1925;SDS011;964;42.606;23.588;2022-08-03T08:57:05;2.57;;;2.37;;
1925;SDS011;964;42.606;23.588;2022-08-03T08:59:34;2.83;;;2.63;;
1925;SDS011;964;42.606;23.588;2022-08-03T09:02:02;2.57;;;2.37;;
1925;SDS011;964;42.606;23.588;2022-08-03T09:04:30;2.13;;;2.03;;
1925;SDS011;964;42.606;23.588;2022-08-03T09:06:57;2.40;;;2.27;;
1925;SDS011;964;42.606;23.588;2022-08-03T09:09:24;2.80;;;2.60;;
1925;SDS011;964;42.606;23.588;2022-08-03T09:11:51;2.00;;;1.80;;
1925;SDS011;964;42.606;23.588;2022-08-03T09:14:18;2.20;;;2.00;;
1925;SDS011;964;42.606;23.588;2022-08-03T09:16:54;3.53;;;1.80;;
1925;SDS011;964;42.606;23.588;2022-08-03T09:19:24;2.10;;;1.90;;
1925;SDS011;964;42.606;23.588;2022-08-03T09:24:55;2.40;;;2.20;;
1925;SDS011;964;42.606;23.588;2022-08-03T09:27:23;2.60;;;2.03;;
1925;SDS011;964;42.606;23.588;2022-08-03T09:29:51;2.15;;;2.03;;
1925;SDS011;964;42.606;23.588;2022-08-03T09:32:19;2.20;;;2.10;;
1925;SDS011;964;42.606;23.588;2022-08-03T09:34:47;2.50;;;2.30;;
1925;SDS011;964;42.606;23.588;2022-08-03T09:37:15;2.15;;;2.05;;
1925;SDS011;964;42.606;23.588;2022-08-03T09:39:43;2.45;;;2.30;;
1925;SDS011;964;42.606;23.588;2022-08-03T09:42:12;2.15;;;2.05;;
1925;SDS011;964;42.606;23.588;2022-08-03T09:44:40;2.00;;;1.90;;
1925;SDS011;964;42.606;23.588;2022-08-03T09:47:10;2.53;;;2.33;;
1925;SDS011;964;42.606;23.588;2022-08-03T09:49:38;2.22;;;2.13;;
1925;SDS011;964;42.606;23.588;2022-08-03T09:52:12;2.38;;;2.17;;
1925;SDS011;964;42.606;23.588;2022-08-03T09:54:40;2.92;;;2.60;;
1925;SDS011;964;42.606;23.588;2022-08-03T09:57:07;2.35;;;2.15;;
1925;SDS011;964;42.606;23.588;2022-08-03T09:59:46;2.20;;;2.00;;
1925;SDS011;964;42.606;23.588;2022-08-03T10:02:19;5.90;;;2.95;;
1925;SDS011;964;42.606;23.588;2022-08-03T10:04:47;2.58;;;2.38;;
1925;SDS011;964;42.606;23.588;2022-08-03T10:07:16;2.30;;;2.20;;
1925;SDS011;964;42.606;23.588;2022-08-03T10:09:51;2.25;;;2.15;;
1925;SDS011;964;42.606;23.588;2022-08-03T10:12:20;2.70;;;2.50;;
1925;SDS011;964;42.606;23.588;2022-08-03T10:14:48;2.15;;;2.05;;
1925;SDS011;964;42.606;23.588;2022-08-03T10:17:15;3.23;;;2.83;;
1925;SDS011;964;42.606;23.588;2022-08-03T10:19:41;2.33;;;2.13;;
1925;SDS011;964;42.606;23.588;2022-08-03T10:22:09;2.40;;;2.20;;
1925;SDS011;964;42.606;23.588;2022-08-03T10:24:38;2.50;;;2.30;;
1925;SDS011;964;42.606;23.588;2022-08-03T10:27:11;2.63;;;2.30;;
1925;SDS011;964;42.606;23.588;2022-08-03T10:29:41;3.10;;;2.30;;
1925;SDS011;964;42.606;23.588;2022-08-03T10:32:14;2.40;;;2.20;;
1925;SDS011;964;42.606;23.588;2022-08-03T10:34:45;2.63;;;2.43;;
1925;SDS011;964;42.606;23.588;2022-08-03T10:37:16;3.90;;;2.80;;
1925;SDS011;964;42.606;23.588;2022-08-03T10:39:43;2.50;;;2.30;;
1925;SDS011;964;42.606;23.588;2022-08-03T10:42:19;2.83;;;2.40;;
1925;SDS011;964;42.606;23.588;2022-08-03T10:44:49;2.57;;;2.37;;
1925;SDS011;964;42.606;23.588;2022-08-03T10:47:22;4.28;;;2.40;;
1925;SDS011;964;42.606;23.588;2022-08-03T10:49:49;3.65;;;2.60;;
1925;SDS011;964;42.606;23.588;2022-08-03T10:52:16;5.07;;;2.90;;
1925;SDS011;964;42.606;23.588;2022-08-03T10:54:43;3.00;;;2.47;;
1925;SDS011;964;42.606;23.588;2022-08-03T11:00:10;3.80;;;2.65;;
1925;SDS011;964;42.606;23.588;2022-08-03T11:05:35;2.75;;;2.55;;
1925;SDS011;964;42.606;23.588;2022-08-03T11:08:16;2.60;;;2.40;;
1925;SDS011;964;42.606;23.588;2022-08-03T11:10:48;2.40;;;2.20;;
1925;SDS011;964;42.606;23.588;2022-08-03T11:13:16;2.53;;;2.33;;
1925;SDS011;964;42.606;23.588;2022-08-03T11:15:45;2.67;;;2.47;;
1925;SDS011;964;42.606;23.588;2022-08-03T11:18:15;2.17;;;2.05;;
1925;SDS011;964;42.606;23.588;2022-08-03T11:20:43;2.60;;;2.40;;
1925;SDS011;964;42.606;23.588;2022-08-03T11:23:10;2.78;;;2.58;;
1925;SDS011;964;42.606;23.588;2022-08-03T11:28:36;2.28;;;2.08;;
1925;SDS011;964;42.606;23.588;2022-08-03T11:34:23;2.70;;;2.00;;
1925;SDS011;964;42.606;23.588;2022-08-03T11:39:48;2.67;;;2.13;;
1925;SDS011;964;42.606;23.588;2022-08-03T11:45:09;2.40;;;2.20;;
1925;SDS011;964;42.606;23.588;2022-08-03T11:47:37;2.22;;;2.03;;
1925;SDS011;964;42.606;23.588;2022-08-03T11:50:07;3.00;;;2.03;;
1925;SDS011;964;42.606;23.588;2022-08-03T11:52:35;2.70;;;2.17;;
1925;SDS011;964;42.606;23.588;2022-08-03T11:55:10;1.95;;;1.85;;
1925;SDS011;964;42.606;23.588;2022-08-03T11:57:38;2.92;;;2.15;;
1925;SDS011;964;42.606;23.588;2022-08-03T12:00:24;2.83;;;2.20;;
1925;SDS011;964;42.606;23.588;2022-08-03T12:02:53;2.35;;;2.15;;
1925;SDS011;964;42.606;23.588;2022-08-03T12:05:35;2.65;;;2.45;;
1925;SDS011;964;42.606;23.588;2022-08-03T12:08:07;2.90;;;2.70;;
1925;SDS011;964;42.606;23.588;2022-08-03T12:10:34;2.53;;;2.33;;
1925;SDS011;964;42.606;23.588;2022-08-03T12:13:03;3.90;;;2.60;;
1925;SDS011;964;42.606;23.588;2022-08-03T12:15:33;4.70;;;2.80;;
1925;SDS011;964;42.606;23.588;2022-08-03T12:18:01;2.60;;;2.40;;
1925;SDS011;964;42.606;23.588;2022-08-03T12:20:30;2.70;;;2.50;;
1925;SDS011;964;42.606;23.588;2022-08-03T12:23:02;3.30;;;2.50;;
1925;SDS011;964;42.606;23.588;2022-08-03T12:25:31;2.97;;;2.77;;
1925;SDS011;964;42.606;23.588;2022-08-03T12:28:06;3.00;;;2.80;;
1925;SDS011;964;42.606;23.588;2022-08-03T12:30:35;2.40;;;2.30;;
1925;SDS011;964;42.606;23.588;2022-08-03T12:33:23;2.73;;;2.53;;
1925;SDS011;964;42.606;23.588;2022-08-03T12:36:01;3.13;;;2.93;;
1925;SDS011;964;42.606;23.588;2022-08-03T12:38:32;3.97;;;3.00;;
1925;SDS011;964;42.606;23.588;2022-08-03T12:41:00;3.40;;;3.10;;
1925;SDS011;964;42.606;23.588;2022-08-03T12:43:28;3.53;;;2.90;;
1925;SDS011;964;42.606;23.588;2022-08-03T12:46:11;3.77;;;3.40;;
1925;SDS011;964;42.606;23.588;2022-08-03T12:51:33;4.37;;;2.60;;
1925;SDS011;964;42.606;23.588;2022-08-03T12:54:03;3.23;;;3.00;;
1925;SDS011;964;42.606;23.588;2022-08-03T12:56:31;3.53;;;3.23;;
1925;SDS011;964;42.606;23.588;2022-08-03T12:58:57;3.60;;;3.00;;
1925;SDS011;964;42.606;23.588;2022-08-03T13:01:24;3.07;;;2.87;;
1925;SDS011;964;42.606;23.588;2022-08-03T13:03:52;3.33;;;3.03;;
1925;SDS011;964;42.606;23.588;2022-08-03T13:06:20;3.33;;;3.03;;
1925;SDS011;964;42.606;23.588;2022-08-03T13:08:49;3.60;;;3.30;;
1925;SDS011;964;42.606;23.588;2022-08-03T13:11:27;3.63;;;2.83;;
1925;SDS011;964;42.606;23.588;2022-08-03T13:13:54;2.83;;;2.60;;
1925;SDS011;964;42.606;23.588;2022-08-03T13:16:21;5.30;;;3.83;;
1925;SDS011;964;42.606;23.588;2022-08-03T13:18:48;3.47;;;2.77;;
1925;SDS011;964;42.606;23.588;2022-08-03T13:21:17;4.20;;;3.90;;
1925;SDS011;964;42.606;23.588;2022-08-03T13:23:45;3.33;;;3.13;;
1925;SDS011;964;42.606;23.588;2022-08-03T13:26:12;3.90;;;3.60;;
1925;SDS011;964;42.606;23.588;2022-08-03T13:28:41;3.80;;;3.50;;
1925;SDS011;964;42.606;23.588;2022-08-03T13:31:08;3.43;;;3.20;;
1925;SDS011;964;42.606;23.588;2022-08-03T13:33:35;3.20;;;3.00;;
1925;SDS011;964;42.606;23.588;2022-08-03T13:36:03;3.50;;;3.20;;
1925;SDS011;964;42.606;23.588;2022-08-03T13:38:29;3.30;;;3.00;;
1925;SDS011;964;42.606;23.588;2022-08-03T13:40:56;3.70;;;3.40;;
1925;SDS011;964;42.606;23.588;2022-08-03T13:43:25;3.67;;;3.30;;
1925;SDS011;964;42.606;23.588;2022-08-03T13:45:53;3.47;;;3.23;;
1925;SDS011;964;42.606;23.588;2022-08-03T13:48:19;3.13;;;2.93;;
1925;SDS011;964;42.606;23.588;2022-08-03T13:50:46;4.00;;;3.43;;
1925;SDS011;964;42.606;23.588;2022-08-03T13:53:13;3.87;;;3.13;;
1925;SDS011;964;42.606;23.588;2022-08-03T13:55:40;4.10;;;3.10;;
1925;SDS011;964;42.606;23.588;2022-08-03T13:58:06;3.87;;;3.40;;
1925;SDS011;964;42.606;23.588;2022-08-03T14:00:36;3.03;;;2.83;;
1925;SDS011;964;42.606;23.588;2022-08-03T14:03:05;2.93;;;2.70;;
1925;SDS011;964;42.606;23.588;2022-08-03T14:05:32;2.90;;;2.70;;
1925;SDS011;964;42.606;23.588;2022-08-03T14:07:59;3.03;;;2.83;;
1925;SDS011;964;42.606;23.588;2022-08-03T14:10:26;3.20;;;2.90;;
1925;SDS011;964;42.606;23.588;2022-08-03T14:12:53;3.30;;;3.07;;
1925;SDS011;964;42.606;23.588;2022-08-03T14:15:20;3.23;;;2.93;;
1925;SDS011;964;42.606;23.588;2022-08-03T14:17:47;3.40;;;3.10;;
1925;SDS011;964;42.606;23.588;2022-08-03T14:20:15;3.43;;;3.13;;
1925;SDS011;964;42.606;23.588;2022-08-03T14:22:42;3.10;;;2.90;;
1925;SDS011;964;42.606;23.588;2022-08-03T14:25:09;3.00;;;2.80;;
1925;SDS011;964;42.606;23.588;2022-08-03T14:27:35;3.00;;;2.70;;
1925;SDS011;964;42.606;23.588;2022-08-03T14:30:02;3.20;;;2.90;;
1925;SDS011;964;42.606;23.588;2022-08-03T14:32:29;3.13;;;2.93;;
1925;SDS011;964;42.606;23.588;2022-08-03T14:34:56;3.50;;;3.20;;
1925;SDS011;964;42.606;23.588;2022-08-03T14:37:24;3.23;;;3.03;;
1925;SDS011;964;42.606;23.588;2022-08-03T14:39:51;3.40;;;3.10;;
1925;SDS011;964;42.606;23.588;2022-08-03T14:42:18;3.10;;;2.90;;
1925;SDS011;964;42.606;23.588;2022-08-03T14:44:45;4.10;;;3.37;;
1925;SDS011;964;42.606;23.588;2022-08-03T14:47:12;4.50;;;2.80;;
1925;SDS011;964;42.606;23.588;2022-08-03T14:49:38;3.60;;;3.27;;
1925;SDS011;964;42.606;23.588;2022-08-03T14:52:05;3.57;;;3.07;;
1925;SDS011;964;42.606;23.588;2022-08-03T14:54:34;3.77;;;3.47;;
1925;SDS011;964;42.606;23.588;2022-08-03T14:57:01;4.90;;;4.07;;
1925;SDS011;964;42.606;23.588;2022-08-03T14:59:27;6.80;;;6.30;;
1925;SDS011;964;42.606;23.588;2022-08-03T15:01:54;4.70;;;4.37;;
1925;SDS011;964;42.606;23.588;2022-08-03T15:04:21;5.13;;;4.70;;
1925;SDS011;964;42.606;23.588;2022-08-03T15:06:47;4.87;;;4.47;;
1925;SDS011;964;42.606;23.588;2022-08-03T15:09:14;5.00;;;4.60;;
1925;SDS011;964;42.606;23.588;2022-08-03T15:11:42;4.57;;;4.27;;
1925;SDS011;964;42.606;23.588;2022-08-03T15:14:09;4.70;;;4.30;;
1925;SDS011;964;42.606;23.588;2022-08-03T15:16:36;4.00;;;3.70;;
1925;SDS011;964;42.606;23.588;2022-08-03T15:19:03;4.87;;;4.47;;
1925;SDS011;964;42.606;23.588;2022-08-03T15:21:30;4.20;;;3.90;;
1925;SDS011;964;42.606;23.588;2022-08-03T15:23:57;5.53;;;5.03;;
1925;SDS011;964;42.606;23.588;2022-08-03T15:26:23;5.57;;;4.57;;
1925;SDS011;964;42.606;23.588;2022-08-03T15:28:52;4.13;;;3.83;;
1925;SDS011;964;42.606;23.588;2022-08-03T15:31:21;4.27;;;3.93;;
1925;SDS011;964;42.606;23.588;2022-08-03T15:33:49;4.07;;;3.77;;
1925;SDS011;964;42.606;23.588;2022-08-03T15:36:16;8.37;;;3.83;;
1925;SDS011;964;42.606;23.588;2022-08-03T15:38:44;3.77;;;3.47;;
1925;SDS011;964;42.606;23.588;2022-08-03T15:41:11;5.43;;;4.30;;
1925;SDS011;964;42.606;23.588;2022-08-03T15:43:38;5.10;;;4.60;;
1925;SDS011;964;42.606;23.588;2022-08-03T15:46:07;4.00;;;3.70;;
1925;SDS011;964;42.606;23.588;2022-08-03T15:48:34;4.43;;;4.03;;
1925;SDS011;964;42.606;23.588;2022-08-03T15:51:01;3.40;;;3.10;;